Página principal
METAR-TAF:

METAR-TAF

Aeroportos :

Aeroporto Internacional de La Tontouta

Nouméa / La Tontouta, Nova Caledónia

latitude: 22-01S, longitude: 166-13E, altura: 16 m

Observação actual do tempo

O boletim foi feito há 24 minutos, às 02:30 UTC
Vento 10 kt de sudeste
Temperatura 27°C
Humidade 74%
Pressão 1013 hPa
Visibilidade 10 km ou mais
Nuvens dispersasa uma altura de 1900 ft
Nuvens fragmentadasa uma altura de 2600 ft
Nuvens fragmentadasa uma altura de 3400 ft

METAR: NWWW 190230Z AUTO 13010KT 9999 SCT019 BKN026 BKN034 27/22 Q1013 NOSIG

Hora: 13:54 (02:54 UTC)

Previsão

O boletim foi feito há 3 horas e 54 minutos, às 23:00 UTC
Previsão válida de 19 às 00 UTC a 19 às 24 UTC
Vento 10 kt de es-sudeste
Visibilidade 10 km ou mais
Poucas nuvensa uma altura de 2000 ft
Nuvens fragmentadasa uma altura de 3500 ft

TAF: NWWW 182300Z 1900/1924 12010KT 9999 FEW020 BKN035

Observações e previsões do tempo de mais de 4000 aeroportos (mensagens METAR e TAF).

As estações disponíveis são os pontos amarelos e vermelhos sobre o mapa.

Mova o rato sobre o mapa para ver o nome da estação.

Depois clique no ponto para visualizar as observações e previsões meteorológicas.

Para alterar o mapa : clique nos botões verdes com uma cruz preta para aumentar o zoom; no botão verde com uma pitada de zoom; ou nas setas verdes para mapas adjacentes.


METAR-TAF: